createdAt,value
2022-10-05T00:00:22.306Z,145313.06
2022-10-05T00:02:52.201Z,145265.75
2022-10-05T00:05:31.863Z,145330.06
2022-10-05T00:08:13.858Z,145332.47
2022-10-05T00:10:42.346Z,145297.31
2022-10-05T00:13:19.852Z,145332.47
2022-10-05T00:15:47.979Z,145334.94
2022-10-05T00:18:21.452Z,145337.31
2022-10-05T00:20:49.175Z,145337.31
2022-10-05T00:23:24.319Z,145281.50
2022-10-05T00:25:51.926Z,145315.50
2022-10-05T00:28:26.797Z,145254.78
2022-10-05T00:30:58.497Z,145313.06
2022-10-05T00:33:27.109Z,145313.06
2022-10-05T00:35:55.525Z,145293.66
2022-10-05T00:38:22.865Z,145296.06
2022-10-05T00:41:08.665Z,145288.81
2022-10-05T00:44:13.172Z,145279.09
2022-10-05T00:46:58.728Z,145296.06
2022-10-05T00:49:35.141Z,145254.78
2022-10-05T00:52:23.488Z,145248.69
2022-10-05T00:55:11.860Z,145245.06
2022-10-05T00:58:01.429Z,145162.53
2022-10-05T01:00:28.576Z,145266.94
2022-10-05T01:03:10.082Z,145319.13
2022-10-05T01:05:48.042Z,145287.56
2022-10-05T01:08:40.338Z,145305.78
2022-10-05T01:11:19.103Z,145330.06
2022-10-05T01:14:21.433Z,145316.72
2022-10-05T01:17:13.049Z,145279.09
2022-10-05T01:20:05.622Z,145257.25
2022-10-05T01:22:32.592Z,145228.06
2022-10-05T01:25:19.807Z,145192.91
2022-10-05T01:28:12.057Z,145162.53
2022-10-05T01:31:06.066Z,145151.66
2022-10-05T01:33:43.301Z,145161.34
2022-10-05T01:36:45.633Z,145128.59
2022-10-05T01:39:26.100Z,145162.53
2022-10-05T01:42:13.174Z,145141.91
2022-10-05T01:44:55.945Z,145143.16
2022-10-05T01:47:47.628Z,145123.69
2022-10-05T01:50:29.016Z,145129.81
2022-10-05T01:52:59.966Z,145083.72
2022-10-05T01:55:40.433Z,145033.97
2022-10-05T01:58:25.779Z,145049.72
2022-10-05T02:01:25.109Z,145025.47
2022-10-05T02:04:37.271Z,144997.59
2022-10-05T02:07:27.448Z,144984.25
2022-10-05T02:10:00.848Z,144953.94
2022-10-05T02:12:32.914Z,144939.38
2022-10-05T02:15:12.728Z,144938.19
2022-10-05T02:17:48.288Z,144924.84
2022-10-05T02:20:23.846Z,144875.16
2022-10-05T02:22:54.747Z,144938.19
2022-10-05T02:25:28.738Z,144900.56
2022-10-05T02:28:09.634Z,144953.94
2022-10-05T02:30:43.023Z,144951.53
2022-10-05T02:33:28.576Z,144956.38
2022-10-05T02:36:07.583Z,144944.22
2022-10-05T02:38:50.862Z,144869.06
2022-10-05T02:41:39.659Z,144952.72
2022-10-05T02:44:37.305Z,144839.97
2022-10-05T02:47:24.373Z,144910.31
2022-10-05T02:50:12.183Z,144926.03
2022-10-05T02:52:39.205Z,144970.91
2022-10-05T02:55:17.782Z,144973.31
2022-10-05T02:57:52.702Z,144953.94
2022-10-05T03:00:22.804Z,144943.03
2022-10-05T03:03:04.577Z,144880.00
2022-10-05T03:06:00.221Z,144934.53
2022-10-05T03:09:06.019Z,144956.38
2022-10-05T03:11:47.254Z,144907.88
2022-10-05T03:14:38.725Z,144882.38
2022-10-05T03:17:19.093Z,144939.38
2022-10-05T03:20:16.486Z,144959.97
2022-10-05T03:23:04.728Z,145024.28
2022-10-05T03:25:54.043Z,144975.75
2022-10-05T03:28:59.548Z,144975.75
2022-10-05T03:31:51.379Z,144956.38
2022-10-05T03:34:27.534Z,144912.72
2022-10-05T03:37:00.879Z,144922.41
2022-10-05T03:39:44.738Z,144888.47
2022-10-05T03:42:37.630Z,144900.56
2022-10-05T03:45:27.677Z,144900.56
2022-10-05T03:48:07.218Z,144844.81
2022-10-05T03:51:05.873Z,144881.19
2022-10-05T03:53:48.061Z,144808.47
2022-10-05T03:56:34.917Z,144901.81
2022-10-05T03:59:20.225Z,144900.56
2022-10-05T04:01:55.347Z,144905.41
2022-10-05T04:04:37.303Z,144881.19
2022-10-05T04:07:09.537Z,144854.50
2022-10-05T04:09:40.994Z,144839.97
2022-10-05T04:12:23.949Z,144826.66
2022-10-05T04:14:54.664Z,144825.44
2022-10-05T04:17:31.445Z,144774.56
2022-10-05T04:20:15.245Z,144807.25
2022-10-05T04:23:09.781Z,144815.75
2022-10-05T04:25:51.771Z,144825.44
2022-10-05T04:28:33.873Z,144798.78
2022-10-05T04:31:05.904Z,144757.56
2022-10-05T04:33:33.475Z,144809.66
2022-10-05T04:36:01.190Z,144809.66
2022-10-05T04:38:31.558Z,144670.34
2022-10-05T04:41:20.305Z,144791.47
2022-10-05T04:44:02.159Z,144774.56
2022-10-05T04:47:08.532Z,144740.59
2022-10-05T04:49:47.903Z,144773.31
2022-10-05T04:52:31.789Z,144733.34
2022-10-05T04:55:19.257Z,144772.09
2022-10-05T04:58:00.669Z,144796.31
2022-10-05T05:01:05.343Z,144808.47
2022-10-05T05:03:53.676Z,144798.78
2022-10-05T05:06:32.578Z,144792.72
2022-10-05T05:09:40.889Z,144806.06
2022-10-05T05:12:10.906Z,144796.31
2022-10-05T05:14:58.354Z,144789.09
2022-10-05T05:17:41.352Z,144775.75
2022-10-05T05:20:43.880Z,144706.69
2022-10-05T05:23:32.852Z,144739.41
2022-10-05T05:26:06.903Z,144699.41
2022-10-05T05:29:15.557Z,144718.78
2022-10-05T05:32:03.475Z,144646.06
2022-10-05T05:34:43.025Z,144710.34
2022-10-05T05:37:41.208Z,144692.16
2022-10-05T05:40:36.283Z,144684.88
2022-10-05T05:43:16.759Z,144670.34
2022-10-05T05:46:14.501Z,144687.28
2022-10-05T05:48:43.789Z,144678.84
2022-10-05T05:51:38.096Z,144681.25
2022-10-05T05:54:21.484Z,144689.72
2022-10-05T05:57:08.887Z,144648.50
2022-10-05T05:59:52.072Z,144720.03
2022-10-05T06:02:25.303Z,144747.88
2022-10-05T06:05:06.674Z,144784.25
2022-10-05T06:07:37.841Z,144854.50
2022-10-05T06:10:45.302Z,144886.03
2022-10-05T06:13:23.003Z,144920.00
2022-10-05T06:15:59.217Z,144920.00
2022-10-05T06:18:28.318Z,144985.47
2022-10-05T06:21:12.100Z,144973.31
2022-10-05T06:24:00.662Z,145024.28
2022-10-05T06:26:43.029Z,145041.22
2022-10-05T06:29:18.942Z,145055.81
2022-10-05T06:32:02.223Z,145072.75
2022-10-05T06:34:45.035Z,145077.63
2022-10-05T06:37:39.504Z,145126.16
2022-10-05T06:40:27.444Z,145110.41
2022-10-05T06:43:24.664Z,145138.31
2022-10-05T06:46:26.076Z,145116.44
2022-10-05T06:49:24.864Z,145194.09
2022-10-05T06:52:36.942Z,145213.50
2022-10-05T06:55:13.992Z,145218.34
2022-10-05T06:57:47.775Z,145172.25
2022-10-05T07:00:20.053Z,145198.94
2022-10-05T07:03:22.121Z,145186.78
2022-10-05T07:06:13.946Z,145201.41
2022-10-05T07:09:14.234Z,145208.66
2022-10-05T07:12:11.616Z,145243.84
2022-10-05T07:14:51.666Z,145303.38
2022-10-05T07:17:27.156Z,145347.09
2022-10-05T07:20:03.670Z,145408.97
2022-10-05T07:23:04.399Z,145455.09
2022-10-05T07:25:41.661Z,145509.75
2022-10-05T07:28:16.219Z,145529.22
2022-10-05T07:31:28.393Z,145509.75
2022-10-05T07:34:05.945Z,145558.34
2022-10-05T07:37:00.654Z,145600.84
2022-10-05T07:39:59.720Z,145638.56
2022-10-05T07:42:47.578Z,145659.19
2022-10-05T07:45:27.018Z,145668.91
2022-10-05T07:47:57.703Z,145636.09
2022-10-05T07:50:46.584Z,145683.47
2022-10-05T07:53:22.540Z,145676.19
2022-10-05T07:55:56.686Z,145713.91
2022-10-05T07:58:30.227Z,145744.31
2022-10-05T08:01:14.252Z,145789.28
2022-10-05T08:04:10.939Z,145833.03
2022-10-05T08:06:40.866Z,145881.66
2022-10-05T08:09:28.769Z,145915.69
2022-10-05T08:12:06.431Z,145977.72
2022-10-05T08:14:48.861Z,146020.28
2022-10-05T08:17:28.874Z,146067.75
2022-10-05T08:20:06.764Z,146083.59
2022-10-05T08:22:45.909Z,146100.63
2022-10-05T08:25:45.285Z,146146.88
2022-10-05T08:28:27.850Z,146172.44
2022-10-05T08:31:00.981Z,146251.53
2022-10-05T08:33:32.229Z,146297.78
2022-10-05T08:36:14.393Z,146346.50
2022-10-05T08:38:42.033Z,146336.75
2022-10-05T08:41:54.482Z,146407.34
2022-10-05T08:44:30.498Z,146456.13
2022-10-05T08:47:14.468Z,146482.94
2022-10-05T08:50:18.780Z,146524.34
2022-10-05T08:53:19.911Z,146536.50
2022-10-05T08:56:29.100Z,146563.31
2022-10-05T08:59:40.562Z,146582.78
2022-10-05T09:02:18.507Z,146566.97
2022-10-05T09:05:19.458Z,146586.44
2022-10-05T09:08:24.270Z,146605.94
2022-10-05T09:11:28.869Z,146610.84
2022-10-05T09:14:21.565Z,146619.34
2022-10-05T09:17:19.847Z,146634.00
2022-10-05T09:19:59.752Z,146627.88
2022-10-05T09:22:44.169Z,146660.75
2022-10-05T09:25:23.487Z,146680.28
2022-10-05T09:28:03.537Z,146669.28
2022-10-05T09:30:55.653Z,146731.50
2022-10-05T09:33:47.436Z,146753.47
2022-10-05T09:36:47.937Z,146797.31
2022-10-05T09:39:23.715Z,146824.13
2022-10-05T09:42:22.403Z,146863.19
2022-10-05T09:45:26.166Z,146899.75
2022-10-05T09:48:13.042Z,146892.41
2022-10-05T09:50:40.833Z,146914.38
2022-10-05T09:53:17.025Z,146938.75
2022-10-05T09:55:49.888Z,146966.78
2022-10-05T09:58:34.929Z,147005.88
2022-10-05T10:01:15.750Z,146958.28
2022-10-05T10:04:20.325Z,146947.28
2022-10-05T10:07:02.257Z,147024.19
2022-10-05T10:09:50.632Z,147096.16
2022-10-05T10:12:33.850Z,147187.69
2022-10-05T10:15:23.926Z,147199.84
2022-10-05T10:18:18.550Z,147216.97
2022-10-05T10:21:16.116Z,147231.59
2022-10-05T10:23:54.986Z,147264.59
2022-10-05T10:26:56.240Z,147270.72
2022-10-05T10:29:45.966Z,147194.97
2022-10-05T10:32:27.249Z,147196.19
2022-10-05T10:35:13.094Z,147263.38
2022-10-05T10:38:02.577Z,147313.44
2022-10-05T10:41:16.620Z,147313.44
2022-10-05T10:44:21.108Z,147282.88
2022-10-05T10:47:28.057Z,147309.75
2022-10-05T10:50:26.197Z,147341.50
2022-10-05T10:53:02.716Z,147321.97
2022-10-05T10:55:57.852Z,147304.88
2022-10-05T10:58:52.565Z,147346.38
2022-10-05T11:01:39.406Z,147341.50
2022-10-05T11:04:33.687Z,147379.34
2022-10-05T11:07:19.413Z,147441.63
2022-10-05T11:10:20.805Z,147446.50
2022-10-05T11:13:12.907Z,147458.72
2022-10-05T11:16:11.587Z,147483.13
2022-10-05T11:19:20.272Z,147462.41
2022-10-05T11:22:28.673Z,147521.03
2022-10-05T11:25:35.058Z,147502.72
2022-10-05T11:28:33.493Z,147457.53
2022-10-05T11:31:34.221Z,147522.28
2022-10-05T11:34:10.263Z,147507.59
2022-10-05T11:36:56.030Z,147527.16
2022-10-05T11:39:30.544Z,147517.41
2022-10-05T11:42:25.228Z,147535.72
2022-10-05T11:45:07.408Z,147600.47
2022-10-05T11:47:49.639Z,147529.59
2022-10-05T11:50:32.331Z,147467.28
2022-10-05T11:53:06.078Z,147458.72
2022-10-05T11:56:16.134Z,147458.72
2022-10-05T11:58:43.165Z,147527.16
2022-10-05T12:01:21.981Z,147556.47
2022-10-05T12:04:15.174Z,147525.91
2022-10-05T12:06:54.419Z,147541.81
2022-10-05T12:10:05.823Z,147563.81
2022-10-05T12:12:40.535Z,147514.94
2022-10-05T12:15:35.146Z,147532.06
2022-10-05T12:18:10.244Z,147561.34
2022-10-05T12:21:07.324Z,147578.47
2022-10-05T12:23:42.219Z,147628.56
2022-10-05T12:26:14.883Z,147583.34
2022-10-05T12:29:01.979Z,147571.13
2022-10-05T12:31:56.414Z,147610.22
2022-10-05T12:35:01.118Z,147627.34
2022-10-05T12:37:58.972Z,147662.75
2022-10-05T12:40:46.232Z,147678.66
2022-10-05T12:43:28.271Z,147701.88
2022-10-05T12:45:55.275Z,147683.53
2022-10-05T12:48:52.445Z,147679.88
2022-10-05T12:51:41.873Z,147710.44
2022-10-05T12:54:27.621Z,147728.81
2022-10-05T12:56:59.871Z,147673.78
2022-10-05T12:59:42.366Z,147557.69
2022-10-05T13:02:43.977Z,147672.53
2022-10-05T13:05:10.911Z,147683.53
2022-10-05T13:08:02.764Z,147673.78
2022-10-05T13:10:37.978Z,147695.78
2022-10-05T13:13:07.712Z,147711.63
2022-10-05T13:15:58.113Z,147698.19
2022-10-05T13:18:25.139Z,147727.53
2022-10-05T13:20:58.072Z,147727.53
2022-10-05T13:23:31.315Z,147769.16
2022-10-05T13:26:39.660Z,147764.22
2022-10-05T13:29:28.690Z,147764.22
2022-10-05T13:32:00.539Z,147683.53
2022-10-05T13:34:45.233Z,147774.03
2022-10-05T13:37:17.959Z,147786.22
2022-10-05T13:39:56.242Z,147745.88
2022-10-05T13:43:02.741Z,147766.69
2022-10-05T13:45:42.050Z,147727.53
2022-10-05T13:48:25.349Z,147761.78
2022-10-05T13:51:18.209Z,147719.03
2022-10-05T13:53:49.686Z,147683.53
2022-10-05T13:56:30.986Z,147704.28
2022-10-05T13:59:27.396Z,147711.63
2022-10-05T14:02:00.897Z,147715.31
2022-10-05T14:04:42.060Z,147698.19
2022-10-05T14:07:34.005Z,147644.41
2022-10-05T14:10:04.445Z,147671.31
2022-10-05T14:12:40.258Z,147682.34
2022-10-05T14:15:29.208Z,147671.31
2022-10-05T14:17:56.554Z,147654.19
2022-10-05T14:20:26.813Z,147693.31
2022-10-05T14:22:59.271Z,147703.06
2022-10-05T14:25:28.490Z,147684.75
2022-10-05T14:27:59.999Z,147693.31
2022-10-05T14:30:29.918Z,147694.53
2022-10-05T14:33:17.274Z,147695.78
2022-10-05T14:35:51.897Z,147706.75
2022-10-05T14:38:23.394Z,147687.22
2022-10-05T14:41:12.201Z,147700.66
2022-10-05T14:43:49.964Z,147677.44
2022-10-05T14:46:17.641Z,147684.75
2022-10-05T14:48:46.755Z,147638.31
2022-10-05T14:51:31.759Z,147685.97
2022-10-05T14:54:01.412Z,147671.31
2022-10-05T14:56:28.426Z,147671.31
2022-10-05T14:59:24.173Z,147676.19
2022-10-05T15:02:02.667Z,147661.53
2022-10-05T15:04:35.484Z,147688.44
2022-10-05T15:07:11.271Z,147677.44
2022-10-05T15:09:56.797Z,147646.88
2022-10-05T15:12:38.371Z,147644.41
2022-10-05T15:15:14.203Z,147651.75
2022-10-05T15:17:54.392Z,147670.09
2022-10-05T15:20:34.749Z,147620.00
2022-10-05T15:27:21.302Z,147644.41
2022-10-05T15:30:11.454Z,147624.88
2022-10-05T15:32:49.734Z,147635.84
2022-10-05T15:35:20.195Z,147637.13
2022-10-05T15:37:53.228Z,147593.13
2022-10-05T15:40:33.439Z,147507.59
2022-10-05T15:43:11.450Z,147470.91
2022-10-05T15:45:52.943Z,147571.13
2022-10-05T15:48:56.139Z,147572.38
2022-10-05T15:51:29.111Z,147577.25
2022-10-05T15:54:26.163Z,147552.78
2022-10-05T15:57:11.980Z,147580.88
2022-10-05T15:59:58.020Z,147562.56
2022-10-05T16:02:37.131Z,147540.63
2022-10-05T16:05:42.942Z,147513.75
2022-10-05T16:08:50.940Z,147451.38
2022-10-05T16:11:32.964Z,147492.94
2022-10-05T16:14:20.225Z,147422.09
2022-10-05T16:16:59.532Z,147453.84
2022-10-05T16:19:26.491Z,147468.50
2022-10-05T16:21:58.751Z,147457.53
2022-10-05T16:24:55.121Z,147431.88
2022-10-05T16:27:52.739Z,147414.75
2022-10-05T16:30:23.121Z,147409.88
2022-10-05T16:32:58.155Z,147392.75
2022-10-05T16:35:37.640Z,147362.28
2022-10-05T16:38:24.818Z,147356.13
2022-10-05T16:41:22.810Z,147343.97
2022-10-05T16:44:10.731Z,147324.41
2022-10-05T16:46:59.353Z,147300.00
2022-10-05T16:49:52.460Z,147243.81
2022-10-05T16:52:21.677Z,147252.41
2022-10-05T16:54:56.385Z,147258.50
2022-10-05T16:57:35.919Z,147247.53
2022-10-05T17:00:15.670Z,147268.25
2022-10-05T17:02:53.021Z,147268.25
2022-10-05T17:05:25.755Z,147282.88
2022-10-05T17:08:16.876Z,147263.38
2022-10-05T17:10:49.573Z,147253.63
2022-10-05T17:13:44.864Z,147182.81
2022-10-05T17:16:26.574Z,147259.72
2022-10-05T17:18:59.474Z,147281.69
2022-10-05T17:21:34.642Z,147231.59
2022-10-05T17:24:23.302Z,147289.03
2022-10-05T17:26:58.345Z,147293.91
2022-10-05T17:29:29.620Z,147292.69
2022-10-05T17:32:33.564Z,147275.59
2022-10-05T17:35:00.524Z,147258.50
2022-10-05T17:37:27.473Z,147248.75
2022-10-05T17:39:56.160Z,147216.97
2022-10-05T17:42:43.077Z,147212.06
2022-10-05T17:45:10.822Z,147192.56
2022-10-05T17:47:57.726Z,147187.69
2022-10-05T17:51:05.066Z,147173.00
2022-10-05T17:54:03.401Z,147182.81
2022-10-05T17:56:48.932Z,147179.13
2022-10-05T17:59:45.695Z,147180.34
2022-10-05T18:02:36.178Z,147193.78
2022-10-05T18:05:04.783Z,147182.81
2022-10-05T18:07:34.610Z,147175.47
2022-10-05T18:10:16.772Z,147187.69
2022-10-05T18:12:59.906Z,147175.47
2022-10-05T18:15:26.823Z,147160.84
2022-10-05T18:18:32.970Z,147096.16
2022-10-05T18:21:14.351Z,147163.25
2022-10-05T18:23:59.763Z,147155.97
2022-10-05T18:26:52.158Z,147175.47
2022-10-05T18:30:05.248Z,147188.91
2022-10-05T18:32:45.271Z,147188.91
2022-10-05T18:35:25.316Z,147162.03
2022-10-05T18:38:05.004Z,147143.75
2022-10-05T18:40:50.818Z,147176.69
2022-10-05T18:43:41.938Z,147173.00
2022-10-05T18:46:30.190Z,147114.47
2022-10-05T18:49:03.184Z,147160.84
2022-10-05T18:51:51.961Z,147155.97
2022-10-05T18:54:43.187Z,147152.28
2022-10-05T18:57:45.043Z,147159.56
2022-10-05T19:00:31.629Z,147157.16
2022-10-05T19:03:08.182Z,147187.69
2022-10-05T19:05:56.701Z,147221.84
2022-10-05T19:08:35.764Z,147227.91
2022-10-05T19:11:12.533Z,147229.19
2022-10-05T19:14:01.546Z,147229.19
2022-10-05T19:16:56.378Z,147238.94
2022-10-05T19:19:43.911Z,147234.06
2022-10-05T19:22:42.868Z,147243.81
2022-10-05T19:25:28.444Z,147286.56
2022-10-05T19:28:17.843Z,147246.28
2022-10-05T19:31:07.416Z,147253.63
2022-10-05T19:33:52.625Z,147290.22
2022-10-05T19:36:35.322Z,147213.28
2022-10-05T19:39:27.517Z,147302.47
2022-10-05T19:42:14.421Z,147324.41
2022-10-05T19:45:07.065Z,147326.84
2022-10-05T19:47:48.527Z,147351.25
2022-10-05T19:50:18.732Z,147356.13
2022-10-05T19:52:50.353Z,147358.59
2022-10-05T19:55:20.395Z,147356.13
2022-10-05T19:57:49.324Z,147329.31
2022-10-05T20:00:35.309Z,147321.97
2022-10-05T20:03:15.540Z,147361.03
2022-10-05T20:05:42.826Z,147339.06
2022-10-05T20:08:17.102Z,147351.25
2022-10-05T20:10:45.769Z,147295.13
2022-10-05T20:13:22.008Z,147325.66
2022-10-05T20:16:35.746Z,147331.72
2022-10-05T20:19:41.623Z,147280.47
2022-10-05T20:22:23.884Z,147343.97
2022-10-05T20:24:53.391Z,147339.06
2022-10-05T20:27:42.194Z,147328.06
2022-10-05T20:30:11.576Z,147329.31
2022-10-05T20:32:38.574Z,147348.84
2022-10-05T20:35:06.867Z,147348.84
2022-10-05T20:37:34.021Z,147347.63
2022-10-05T20:40:01.052Z,147378.13
2022-10-05T20:42:28.049Z,147394.03
2022-10-05T20:44:57.259Z,147387.88
2022-10-05T20:47:25.535Z,147354.94
2022-10-05T20:49:55.554Z,147383.00
2022-10-05T20:52:25.658Z,147373.25
2022-10-05T20:54:56.521Z,147392.75
2022-10-05T20:57:24.188Z,147369.56
2022-10-05T20:59:51.486Z,147390.34
2022-10-05T21:02:19.493Z,147384.25
2022-10-05T21:04:47.832Z,147370.81
2022-10-05T21:07:16.660Z,147390.34
2022-10-05T21:09:44.663Z,147402.56
2022-10-05T21:12:11.873Z,147358.59
2022-10-05T21:14:38.989Z,147364.69
2022-10-05T21:17:06.651Z,147380.59
2022-10-05T21:19:38.223Z,147395.22
2022-10-05T21:22:09.593Z,147395.22
2022-10-05T21:24:38.828Z,147373.25
2022-10-05T21:27:06.599Z,147383.00
2022-10-05T21:29:35.340Z,147356.13
2022-10-05T21:32:03.209Z,147296.31
2022-10-05T21:34:30.270Z,147334.19
2022-10-05T21:36:57.294Z,147342.72
2022-10-05T21:39:24.677Z,147361.03
2022-10-05T21:41:51.952Z,147358.59
2022-10-05T21:44:19.210Z,147358.59
2022-10-05T21:46:47.584Z,147369.56
2022-10-05T21:49:19.534Z,147368.34
2022-10-05T21:51:47.314Z,147329.31
2022-10-05T21:54:19.630Z,147334.19
2022-10-05T21:56:50.224Z,147370.81
2022-10-05T21:59:20.209Z,147361.03
2022-10-05T22:01:47.258Z,147385.47
2022-10-05T22:04:15.002Z,147380.59
2022-10-05T22:06:42.020Z,147378.13
2022-10-05T22:09:09.419Z,147398.91
2022-10-05T22:11:36.471Z,147380.59
2022-10-05T22:14:03.589Z,147380.59
2022-10-05T22:16:34.030Z,147369.56
2022-10-05T22:19:05.768Z,147376.91
2022-10-05T22:21:37.961Z,147334.19
2022-10-05T22:24:05.407Z,147364.69
2022-10-05T22:26:32.917Z,147386.69
2022-10-05T22:29:01.690Z,147361.03
2022-10-05T22:31:28.890Z,147309.75
2022-10-05T22:33:55.948Z,147361.03
2022-10-05T22:36:23.138Z,147331.72
2022-10-05T22:38:50.160Z,147373.25
2022-10-05T22:41:18.344Z,147363.47
2022-10-05T22:43:49.870Z,147365.94
2022-10-05T22:46:17.509Z,147368.34
2022-10-05T22:48:44.763Z,147370.81
2022-10-05T22:51:11.764Z,147256.06
2022-10-05T22:53:38.788Z,147336.63
2022-10-05T22:56:08.585Z,147339.06
2022-10-05T22:58:36.466Z,147357.38
2022-10-05T23:01:05.738Z,147354.94
2022-10-05T23:03:33.598Z,147358.59
2022-10-05T23:06:09.709Z,147363.47
2022-10-05T23:08:38.034Z,147346.38
2022-10-05T23:11:07.565Z,147365.94
2022-10-05T23:13:34.611Z,147325.66
2022-10-05T23:16:24.893Z,147346.38
2022-10-05T23:18:54.371Z,147356.13
2022-10-05T23:21:23.209Z,147348.84
2022-10-05T23:23:53.589Z,147306.09
2022-10-05T23:26:25.254Z,147352.50
2022-10-05T23:28:52.362Z,147320.78
2022-10-05T23:31:21.769Z,147352.50
2022-10-05T23:33:49.164Z,147362.28
2022-10-05T23:36:27.642Z,147348.84
2022-10-05T23:38:54.610Z,147317.09
2022-10-05T23:41:21.709Z,147320.78
2022-10-05T23:43:48.999Z,147256.06
2022-10-05T23:46:17.652Z,147303.66
2022-10-05T23:48:44.777Z,147236.47
2022-10-05T23:51:13.430Z,147248.75
2022-10-05T23:53:40.408Z,147243.81
2022-10-05T23:56:07.443Z,147175.47
2022-10-05T23:58:34.450Z,147136.41
